Time;durP1;ratioP1;P1;durP2;ratioP2;P2;SDS_P1;SDS_P2;PMS_P1;PMS_P2;Temp;Humidity;BMP_temperature;BMP_pressure;BME280_temperature;BME280_humidity;BME280_pressure;Samples;Min_cycle;Max_cycle;Signal;HPM_P1;HPM_P2
2022/07/13 00:01:10;;;;;;;26.03;24.43;;;18.40;73.60;;;;;;5007411;28;20476;-71
2022/07/13 00:03:37;;;;;;;26.50;25.10;;;18.40;73.60;;;;;;5005464;28;20469;-71
2022/07/13 00:06:05;;;;;;;25.90;24.50;;;18.30;73.60;;;;;;5001437;28;20564;-71
2022/07/13 00:08:33;;;;;;;25.80;24.20;;;18.30;73.60;;;;;;5007206;28;20568;-70
2022/07/13 00:11:00;;;;;;;25.60;24.10;;;18.30;73.40;;;;;;5008019;28;20457;-71
2022/07/13 00:13:27;;;;;;;24.93;23.60;;;18.30;73.20;;;;;;5003404;28;20556;-71
2022/07/13 00:15:54;;;;;;;25.00;23.70;;;18.30;73.30;;;;;;5006045;28;20840;-71
2022/07/13 00:18:20;;;;;;;26.10;24.60;;;18.30;73.30;;;;;;5005788;28;20572;-71
2022/07/13 00:20:47;;;;;;;25.30;23.90;;;18.30;73.40;;;;;;5005098;28;20950;-72
2022/07/13 00:23:16;;;;;;;25.77;24.37;;;18.20;73.60;;;;;;5004354;28;20540;-71
2022/07/13 00:25:43;;;;;;;25.63;24.30;;;18.20;73.70;;;;;;5000781;28;20858;-72
2022/07/13 00:28:09;;;;;;;26.10;24.70;;;18.20;73.60;;;;;;5005859;28;20552;-71
2022/07/13 00:30:36;;;;;;;25.87;24.40;;;18.20;73.50;;;;;;5008031;28;20889;-71
2022/07/13 00:33:04;;;;;;;25.30;24.00;;;18.10;73.90;;;;;;5006537;28;20548;-71
2022/07/13 00:35:30;;;;;;;25.23;23.83;;;18.10;74.00;;;;;;5006594;28;20457;-71
2022/07/13 00:37:57;;;;;;;24.77;23.27;;;18.00;74.20;;;;;;5003530;28;20509;-71
2022/07/13 00:40:26;;;;;;;25.60;24.10;;;18.00;74.60;;;;;;5000923;28;20826;-72
2022/07/13 00:42:53;;;;;;;25.00;23.60;;;17.90;74.70;;;;;;4997966;28;21087;-71
2022/07/13 00:45:20;;;;;;;25.07;23.77;;;17.90;75.00;;;;;;5005911;28;20545;-71
2022/07/13 00:47:48;;;;;;;25.80;24.17;;;17.80;75.20;;;;;;5006060;28;20576;-71
2022/07/13 00:50:16;;;;;;;25.20;23.80;;;17.80;75.20;;;;;;5007991;28;20457;-71
2022/07/13 00:52:44;;;;;;;24.90;23.50;;;17.70;75.50;;;;;;5003195;28;20460;-71
2022/07/13 00:55:13;;;;;;;25.00;23.70;;;17.60;75.90;;;;;;5004895;28;20504;-71
2022/07/13 00:57:41;;;;;;;24.80;23.50;;;17.60;75.90;;;;;;5005431;28;20492;-71
2022/07/13 01:00:11;;;;;;;24.83;23.50;;;17.60;76.00;;;;;;5004859;28;20579;-71
2022/07/13 01:02:38;;;;;;;25.50;24.00;;;17.60;76.20;;;;;;5002917;28;20584;-69
2022/07/13 01:05:06;;;;;;;24.93;23.63;;;17.50;76.40;;;;;;5007312;28;20474;-69
2022/07/13 01:07:33;;;;;;;24.57;23.27;;;17.50;76.40;;;;;;5002035;28;20453;-69
2022/07/13 01:10:01;;;;;;;26.60;24.73;;;17.60;76.20;;;;;;5008403;28;20457;-70
2022/07/13 01:12:30;;;;;;;25.93;24.53;;;17.60;76.20;;;;;;5007091;28;20816;-69
2022/07/13 01:14:59;;;;;;;26.13;24.50;;;17.60;76.00;;;;;;5007049;28;20977;-70
2022/07/13 01:17:26;;;;;;;28.03;25.80;;;17.60;75.90;;;;;;5006668;28;20469;-69
2022/07/13 01:19:54;;;;;;;27.20;25.10;;;17.60;76.00;;;;;;5006905;28;20464;-69
2022/07/13 01:22:24;;;;;;;26.43;24.53;;;17.60;75.90;;;;;;5007429;28;20496;-69
2022/07/13 01:24:53;;;;;;;24.70;23.40;;;17.60;76.00;;;;;;5005796;28;20560;-69
2022/07/13 01:27:20;;;;;;;25.83;24.23;;;17.50;76.00;;;;;;4999085;28;20561;-69
2022/07/13 01:29:47;;;;;;;25.70;24.30;;;17.50;76.20;;;;;;5006865;28;21055;-69
2022/07/13 01:32:14;;;;;;;25.27;23.90;;;17.50;76.20;;;;;;5005468;28;20571;-69
2022/07/13 01:34:41;;;;;;;25.20;23.80;;;17.40;76.20;;;;;;5007342;28;20548;-69
2022/07/13 01:37:09;;;;;;;25.17;23.87;;;17.40;76.20;;;;;;5005834;28;20756;-69
2022/07/13 01:39:35;;;;;;;24.90;23.50;;;17.50;76.20;;;;;;5005860;28;20540;-69
2022/07/13 01:42:04;;;;;;;25.67;24.17;;;17.60;75.70;;;;;;5004646;28;20461;-69
2022/07/13 01:44:31;;;;;;;25.33;23.93;;;17.60;75.70;;;;;;5006975;28;20548;-69
2022/07/13 01:46:58;;;;;;;25.60;24.10;;;17.70;75.50;;;;;;5008368;28;20573;-69
2022/07/13 01:49:25;;;;;;;25.70;24.03;;;17.70;75.10;;;;;;5003856;28;20560;-71
2022/07/13 01:51:52;;;;;;;25.20;23.90;;;17.70;75.10;;;;;;5004338;28;20551;-69
2022/07/13 01:54:19;;;;;;;25.47;24.07;;;17.80;75.10;;;;;;5007187;28;20539;-69
2022/07/13 01:56:46;;;;;;;25.57;24.17;;;17.80;74.90;;;;;;5007203;28;20456;-69
2022/07/13 01:59:14;;;;;;;25.53;24.03;;;17.90;74.60;;;;;;5008937;28;20479;-69
2022/07/13 02:01:41;;;;;;;26.00;24.60;;;17.90;74.40;;;;;;5006887;28;20461;-69
2022/07/13 02:04:08;;;;;;;26.43;24.77;;;17.90;74.30;;;;;;5006559;28;20544;-69
2022/07/13 02:06:35;;;;;;;26.60;25.10;;;17.90;74.30;;;;;;5007541;28;20482;-69
2022/07/13 02:09:01;;;;;;;24.87;23.50;;;18.00;74.40;;;;;;5010104;28;20473;-69
2022/07/13 02:11:28;;;;;;;24.90;23.60;;;18.00;74.40;;;;;;5008081;28;20475;-69
2022/07/13 02:13:55;;;;;;;24.60;23.30;;;18.00;74.40;;;;;;5007589;28;20455;-69
2022/07/13 02:16:23;;;;;;;25.33;23.93;;;18.00;74.30;;;;;;5009428;28;20467;-69
2022/07/13 02:18:50;;;;;;;25.37;23.83;;;18.00;74.30;;;;;;5011418;28;20595;-69
2022/07/13 02:21:17;;;;;;;24.90;23.40;;;18.00;74.40;;;;;;5008624;28;20467;-70
2022/07/13 02:23:44;;;;;;;25.23;23.93;;;18.00;74.20;;;;;;5002243;28;20465;-69
2022/07/13 02:26:11;;;;;;;26.83;25.43;;;18.10;73.80;;;;;;5008745;28;21044;-69
2022/07/13 02:28:38;;;;;;;25.20;23.70;;;18.20;73.80;;;;;;5010357;28;20572;-69
2022/07/13 02:31:05;;;;;;;25.30;24.00;;;18.20;73.60;;;;;;5007275;28;20540;-69
2022/07/13 02:33:33;;;;;;;25.10;23.80;;;18.20;73.80;;;;;;5008358;28;21034;-69
2022/07/13 02:36:00;;;;;;;25.00;23.70;;;18.20;73.60;;;;;;5010486;28;20487;-69
2022/07/13 02:38:27;;;;;;;27.77;26.17;;;18.20;73.60;;;;;;5008873;28;20557;-69
2022/07/13 02:40:54;;;;;;;24.70;23.40;;;18.30;73.60;;;;;;5008220;28;20544;-69
2022/07/13 02:43:21;;;;;;;25.60;24.20;;;18.30;73.40;;;;;;5009011;28;20556;-71
2022/07/13 02:45:47;;;;;;;24.43;23.13;;;18.20;73.60;;;;;;5010360;28;20987;-70
2022/07/13 02:48:14;;;;;;;25.00;23.60;;;18.20;73.40;;;;;;5010536;28;20527;-71
2022/07/13 02:50:42;;;;;;;24.73;23.33;;;18.20;73.50;;;;;;5002219;28;20899;-71
2022/07/13 02:53:09;;;;;;;27.10;25.00;;;18.20;73.70;;;;;;5008728;28;20475;-71
2022/07/13 02:55:36;;;;;;;25.57;24.17;;;18.10;73.70;;;;;;5005739;28;20461;-70
2022/07/13 02:58:03;;;;;;;25.77;24.20;;;18.20;73.80;;;;;;5008582;28;20575;-71
2022/07/13 03:00:30;;;;;;;25.83;24.40;;;18.10;74.10;;;;;;5006965;28;20576;-71
2022/07/13 03:02:57;;;;;;;25.10;23.70;;;18.10;74.00;;;;;;5005428;28;20985;-71
2022/07/13 03:05:24;;;;;;;25.97;24.57;;;18.20;73.90;;;;;;5006664;28;20893;-69
2022/07/13 03:07:53;;;;;;;26.77;25.20;;;18.20;74.10;;;;;;5005467;28;20982;-69
2022/07/13 03:10:19;;;;;;;25.70;24.30;;;18.10;74.20;;;;;;5007551;28;20467;-69
2022/07/13 03:12:47;;;;;;;26.47;24.90;;;18.00;74.50;;;;;;5008031;28;20905;-69
2022/07/13 03:15:13;;;;;;;26.13;24.73;;;18.00;74.70;;;;;;5008584;28;20497;-69
2022/07/13 03:17:42;;;;;;;26.40;25.00;;;17.90;75.00;;;;;;5007677;28;20489;-69
2022/07/13 03:20:10;;;;;;;26.80;25.30;;;17.90;74.80;;;;;;5007497;28;20461;-69
2022/07/13 03:22:37;;;;;;;25.70;24.30;;;17.90;75.30;;;;;;5008489;28;20545;-69
2022/07/13 03:25:07;;;;;;;27.07;25.57;;;17.90;75.30;;;;;;5006085;28;20552;-69
2022/07/13 03:27:34;;;;;;;25.90;24.30;;;17.90;75.50;;;;;;5006051;28;20477;-69
2022/07/13 03:30:01;;;;;;;25.70;24.30;;;17.80;75.80;;;;;;5007678;28;20556;-69
2022/07/13 03:32:28;;;;;;;27.83;26.23;;;17.80;75.80;;;;;;5009329;28;20467;-69
2022/07/13 03:34:54;;;;;;;26.30;24.80;;;17.90;75.70;;;;;;5007738;28;20540;-69
2022/07/13 03:37:21;;;;;;;26.33;24.93;;;17.80;76.00;;;;;;5008975;28;20532;-69
2022/07/13 03:39:48;;;;;;;28.30;26.50;;;17.80;75.70;;;;;;5006704;28;20562;-69
2022/07/13 03:42:16;;;;;;;29.70;28.00;;;17.80;75.70;;;;;;5005920;28;20461;-69
2022/07/13 03:44:44;;;;;;;26.20;24.80;;;17.80;75.80;;;;;;5007573;28;20559;-69
2022/07/13 03:47:10;;;;;;;26.00;24.60;;;17.80;76.20;;;;;;5006854;28;20487;-69
2022/07/13 03:49:37;;;;;;;25.30;23.90;;;17.70;76.30;;;;;;5007440;28;21017;-69
2022/07/13 03:52:04;;;;;;;27.33;25.83;;;17.70;76.10;;;;;;5006735;28;20471;-71
2022/07/13 03:54:32;;;;;;;28.70;27.10;;;17.80;76.00;;;;;;5005917;28;20560;-71
2022/07/13 03:56:59;;;;;;;31.27;29.67;;;17.80;76.00;;;;;;5005404;28;20939;-71
2022/07/13 03:59:27;;;;;;;25.80;24.40;;;17.90;75.90;;;;;;5005802;28;20576;-70
2022/07/13 04:01:54;;;;;;;27.63;26.03;;;18.00;75.50;;;;;;5008557;28;20988;-71
2022/07/13 04:04:21;;;;;;;25.60;24.20;;;18.20;75.10;;;;;;5007217;28;20457;-71
2022/07/13 04:06:47;;;;;;;26.90;25.30;;;18.30;74.60;;;;;;5001085;28;20565;-71
2022/07/13 04:09:14;;;;;;;27.27;25.77;;;18.50;74.20;;;;;;5004694;28;20493;-71
2022/07/13 04:11:42;;;;;;;26.70;25.20;;;18.60;73.50;;;;;;5008570;28;20898;-71
2022/07/13 04:14:09;;;;;;;30.03;28.33;;;18.70;73.30;;;;;;5008022;28;20449;-70
2022/07/13 04:16:37;;;;;;;26.87;25.30;;;18.80;73.00;;;;;;5008115;28;20975;-70
2022/07/13 04:19:04;;;;;;;31.00;29.40;;;18.80;72.70;;;;;;5005662;28;20480;-70
2022/07/13 04:21:31;;;;;;;28.83;27.17;;;18.80;72.80;;;;;;5007254;28;20984;-71
2022/07/13 04:23:58;;;;;;;26.07;24.67;;;18.90;72.50;;;;;;5004176;28;20996;-69
2022/07/13 04:26:25;;;;;;;26.30;24.90;;;18.80;72.50;;;;;;5006006;28;20508;-69
2022/07/13 04:28:52;;;;;;;26.93;25.33;;;18.80;72.60;;;;;;5003365;28;20520;-69
2022/07/13 04:31:19;;;;;;;27.57;26.07;;;18.80;72.80;;;;;;5005350;28;20552;-69
2022/07/13 04:33:47;;;;;;;26.70;25.20;;;18.80;72.80;;;;;;5004944;28;20548;-69
2022/07/13 04:36:14;;;;;;;28.13;26.53;;;18.80;72.60;;;;;;5008050;28;20463;-69
2022/07/13 04:38:41;;;;;;;26.90;25.30;;;18.80;72.80;;;;;;4997484;28;20675;-72
2022/07/13 04:41:08;;;;;;;29.17;27.47;;;18.80;72.80;;;;;;5000865;28;20538;-70
2022/07/13 04:43:35;;;;;;;28.30;26.70;;;18.80;73.10;;;;;;5005607;28;20501;-70
2022/07/13 04:46:02;;;;;;;26.57;25.17;;;18.80;73.10;;;;;;5001811;28;20903;-70
2022/07/13 04:48:29;;;;;;;26.10;24.70;;;18.80;72.90;;;;;;5002400;28;20577;-70
2022/07/13 04:50:57;;;;;;;33.93;32.13;;;18.90;72.80;;;;;;5006516;28;20470;-74
2022/07/13 04:53:24;;;;;;;28.03;26.43;;;18.90;73.00;;;;;;5005433;28;20461;-69
2022/07/13 04:55:51;;;;;;;27.10;25.57;;;19.00;72.60;;;;;;5010334;28;20469;-69
2022/07/13 04:58:18;;;;;;;28.33;26.63;;;19.00;72.70;;;;;;5002856;28;20489;-70
2022/07/13 05:00:45;;;;;;;27.10;25.60;;;19.10;72.50;;;;;;5005660;28;20569;-69
2022/07/13 05:03:12;;;;;;;28.00;26.40;;;19.20;72.30;;;;;;5004901;28;20525;-71
2022/07/13 05:05:38;;;;;;;28.67;27.03;;;19.30;72.10;;;;;;5004472;28;20470;-72
2022/07/13 05:08:08;;;;;;;27.13;25.63;;;19.40;72.00;;;;;;4998435;28;20559;-70
2022/07/13 05:10:35;;;;;;;27.67;25.97;;;19.50;71.90;;;;;;5008558;28;20545;-74
2022/07/13 05:13:02;;;;;;;27.40;25.80;;;19.60;71.50;;;;;;5007257;28;20546;-73
2022/07/13 05:15:29;;;;;;;29.03;27.43;;;19.60;71.20;;;;;;5004556;28;20470;-74
2022/07/13 05:17:56;;;;;;;27.43;25.93;;;19.70;71.10;;;;;;4994950;28;21407;-74
2022/07/13 05:20:23;;;;;;;28.70;26.90;;;19.90;70.40;;;;;;5000713;28;20469;-74
2022/07/13 05:22:49;;;;;;;29.57;27.77;;;20.00;70.30;;;;;;5001779;28;20491;-73
2022/07/13 05:25:18;;;;;;;28.07;26.37;;;20.10;70.20;;;;;;5001777;28;20530;-77
2022/07/13 05:27:45;;;;;;;28.40;26.70;;;20.30;69.80;;;;;;5006370;28;20480;-79
2022/07/13 05:30:12;;;;;;;27.03;25.33;;;20.50;69.40;;;;;;5006941;28;20594;-77
2022/07/13 05:32:39;;;;;;;29.17;27.57;;;20.60;69.00;;;;;;5006604;28;20546;-73
2022/07/13 05:35:06;;;;;;;30.40;28.70;;;20.70;68.70;;;;;;5008982;28;20562;-73
2022/07/13 05:37:33;;;;;;;30.13;28.03;;;20.90;68.30;;;;;;5009875;28;20498;-73
2022/07/13 05:40:00;;;;;;;28.97;27.47;;;21.10;67.90;;;;;;5011886;28;21254;-73
2022/07/13 05:42:28;;;;;;;28.27;26.60;;;21.30;67.40;;;;;;5011718;28;20464;-73
2022/07/13 05:44:55;;;;;;;28.13;26.43;;;21.40;66.60;;;;;;5011305;28;21030;-74
2022/07/13 05:47:22;;;;;;;29.30;27.40;;;21.40;66.60;;;;;;5009852;28;20473;-76
2022/07/13 05:49:50;;;;;;;29.20;27.50;;;21.60;65.90;;;;;;5003860;28;20496;-73
2022/07/13 05:52:17;;;;;;;28.67;27.07;;;21.80;65.80;;;;;;5008333;28;20837;-70
2022/07/13 05:54:44;;;;;;;28.17;26.60;;;21.80;65.60;;;;;;5009800;28;20483;-71
2022/07/13 05:57:11;;;;;;;29.40;27.50;;;21.90;65.70;;;;;;5010402;28;20924;-71
2022/07/13 05:59:40;;;;;;;30.47;28.77;;;21.90;65.00;;;;;;5008662;28;20488;-71
2022/07/13 06:02:07;;;;;;;29.17;27.57;;;21.90;64.80;;;;;;5010090;28;20549;-71
2022/07/13 06:04:34;;;;;;;28.67;27.17;;;22.00;64.80;;;;;;5010471;28;20589;-72
2022/07/13 06:07:01;;;;;;;29.70;28.00;;;22.00;64.20;;;;;;5004470;28;21016;-71
2022/07/13 06:09:28;;;;;;;30.73;28.73;;;22.20;63.90;;;;;;5011552;28;20564;-71
2022/07/13 06:11:54;;;;;;;29.20;27.60;;;22.40;63.60;;;;;;5010954;28;20453;-70
2022/07/13 06:14:22;;;;;;;28.73;27.17;;;22.70;63.20;;;;;;5010033;28;20465;-72
2022/07/13 06:16:50;;;;;;;29.83;27.83;;;23.00;62.20;;;;;;5012141;28;20481;-72
2022/07/13 06:19:17;;;;;;;28.20;26.50;;;23.20;61.40;;;;;;5011082;28;20488;-73
2022/07/13 06:21:44;;;;;;;29.27;27.57;;;23.40;60.90;;;;;;5010027;28;20464;-72
2022/07/13 06:24:11;;;;;;;30.73;29.03;;;23.60;60.80;;;;;;5011471;28;20469;-72
2022/07/13 06:26:38;;;;;;;30.33;28.67;;;23.90;60.50;;;;;;5011980;28;20552;-72
2022/07/13 06:29:06;;;;;;;30.07;28.27;;;24.10;59.80;;;;;;5009091;28;20580;-73
2022/07/13 06:31:33;;;;;;;28.40;26.70;;;24.30;59.50;;;;;;5011579;28;20465;-72
2022/07/13 06:34:01;;;;;;;31.70;29.80;;;24.30;59.20;;;;;;5009961;28;20552;-72
2022/07/13 06:36:28;;;;;;;30.47;28.37;;;24.50;58.90;;;;;;5012520;28;20457;-73
2022/07/13 06:38:55;;;;;;;31.43;29.37;;;24.70;58.40;;;;;;5010088;28;20513;-72
2022/07/13 06:41:22;;;;;;;30.43;28.63;;;24.70;58.60;;;;;;5010129;28;20461;-72
2022/07/13 06:43:49;;;;;;;34.00;32.03;;;24.80;58.10;;;;;;5009068;28;20472;-72
2022/07/13 06:46:16;;;;;;;32.53;30.73;;;24.80;57.90;;;;;;5010238;28;20634;-72
2022/07/13 06:48:43;;;;;;;32.47;30.47;;;24.90;57.60;;;;;;5007257;28;20482;-72
2022/07/13 06:51:12;;;;;;;30.70;28.60;;;24.90;57.20;;;;;;5010044;28;20850;-72
2022/07/13 06:53:39;;;;;;;32.63;30.53;;;25.00;56.60;;;;;;5007636;28;20565;-72
2022/07/13 06:56:06;;;;;;;36.13;32.87;;;25.00;56.60;;;;;;5008936;28;20878;-72
2022/07/13 06:58:33;;;;;;;38.70;35.50;;;25.00;56.30;;;;;;5008182;28;21034;-72
2022/07/13 07:01:00;;;;;;;33.77;31.47;;;25.10;56.30;;;;;;5000851;28;20478;-72
2022/07/13 07:03:27;;;;;;;34.63;32.17;;;25.10;56.30;;;;;;5006536;28;20467;-71
2022/07/13 07:05:55;;;;;;;33.00;31.07;;;25.10;56.00;;;;;;5006649;28;21054;-71
2022/07/13 07:08:23;;;;;;;31.90;30.03;;;25.10;55.90;;;;;;5003835;28;20489;-73
2022/07/13 07:10:50;;;;;;;32.33;30.13;;;25.00;55.90;;;;;;5006463;28;20489;-73
2022/07/13 07:13:17;;;;;;;32.60;30.40;;;25.00;56.30;;;;;;5008339;28;20804;-73
2022/07/13 07:15:45;;;;;;;33.60;31.60;;;25.00;56.40;;;;;;5005888;28;20610;-73
2022/07/13 07:18:12;;;;;;;31.40;29.40;;;25.10;56.50;;;;;;5008047;28;21024;-74
2022/07/13 07:20:39;;;;;;;30.00;28.03;;;25.20;55.90;;;;;;5003881;28;20468;-73
2022/07/13 07:23:07;;;;;;;30.90;29.17;;;25.20;55.40;;;;;;5001438;28;20866;-73
2022/07/13 07:25:35;;;;;;;30.80;28.73;;;25.40;55.40;;;;;;5008997;28;20973;-75
2022/07/13 07:28:04;;;;;;;30.17;28.27;;;25.50;55.50;;;;;;5009465;28;20584;-74
2022/07/13 07:30:31;;;;;;;30.73;28.90;;;25.50;55.50;;;;;;5007247;28;20459;-74
2022/07/13 07:32:58;;;;;;;32.70;31.40;;;25.50;55.80;;;;;;5007038;28;20956;-73
2022/07/13 07:35:28;;;;;;;30.87;28.70;;;25.50;54.90;;;;;;5008545;28;20492;-72
2022/07/13 07:37:58;;;;;;;33.93;31.73;;;25.70;54.50;;;;;;5006861;28;20507;-72
2022/07/13 07:40:25;;;;;;;31.90;29.97;;;25.80;54.60;;;;;;5009673;28;20460;-72
2022/07/13 07:42:53;;;;;;;31.00;29.03;;;25.80;54.60;;;;;;5005742;28;20551;-72
2022/07/13 07:45:21;;;;;;;28.97;26.97;;;25.90;55.00;;;;;;5008637;28;21027;-72
2022/07/13 07:47:50;;;;;;;33.90;31.80;;;26.20;54.10;;;;;;5006634;28;20488;-71
2022/07/13 07:50:17;;;;;;;29.80;28.00;;;26.20;53.50;;;;;;5007714;28;20556;-72
2022/07/13 07:52:44;;;;;;;28.67;26.97;;;26.30;53.40;;;;;;5001630;28;20517;-72
2022/07/13 07:55:11;;;;;;;33.10;31.10;;;26.40;53.00;;;;;;5007498;28;20561;-72
2022/07/13 07:57:46;;;;;;;28.63;26.83;;;26.80;51.70;;;;;;5006130;28;20842;-72
2022/07/13 08:00:15;;;;;;;31.40;29.30;;;27.40;50.40;;;;;;5006314;28;20456;-73
2022/07/13 08:02:42;;;;;;;31.97;29.80;;;27.70;49.60;;;;;;5005842;28;20481;-72
2022/07/13 08:05:09;;;;;;;29.23;27.53;;;28.10;48.10;;;;;;5008276;28;21040;-73
2022/07/13 08:07:41;;;;;;;33.47;31.67;;;28.40;48.20;;;;;;5008412;28;20611;-73
2022/07/13 08:10:10;;;;;;;33.23;31.07;;;28.70;47.10;;;;;;5007435;28;20468;-72
2022/07/13 08:12:37;;;;;;;30.53;28.83;;;28.90;47.30;;;;;;5006665;28;20552;-72
2022/07/13 08:15:08;;;;;;;31.97;29.93;;;29.20;45.60;;;;;;5009704;28;20453;-70
2022/07/13 08:17:37;;;;;;;29.13;27.40;;;29.40;45.70;;;;;;5007491;28;20461;-70
2022/07/13 08:20:04;;;;;;;31.67;29.83;;;29.40;44.90;;;;;;5008481;28;20459;-70
2022/07/13 08:22:34;;;;;;;29.53;27.93;;;29.50;45.30;;;;;;5007061;28;20548;-71
2022/07/13 08:25:01;;;;;;;31.43;29.73;;;29.70;45.10;;;;;;5006680;28;20457;-70
2022/07/13 08:27:28;;;;;;;32.33;30.20;;;29.90;43.50;;;;;;5005497;28;20467;-70
2022/07/13 08:29:55;;;;;;;32.13;30.37;;;30.10;43.20;;;;;;5005409;28;20461;-70
2022/07/13 08:32:22;;;;;;;30.90;28.93;;;30.30;43.60;;;;;;5007662;28;20456;-74
2022/07/13 08:40:20;;;;;;;30.87;29.17;;;30.70;42.50;;;;;;5007779;28;20901;-69
2022/07/13 08:42:48;;;;;;;30.97;29.00;;;30.80;42.40;;;;;;5003112;28;20472;-70
2022/07/13 08:45:16;;;;;;;27.93;26.33;;;30.80;41.60;;;;;;5007847;28;20464;-70
2022/07/13 08:47:45;;;;;;;31.40;29.70;;;31.00;41.80;;;;;;5006777;28;20840;-70
2022/07/13 08:50:14;;;;;;;32.53;30.93;;;30.90;41.60;;;;;;5003207;28;21173;-70
2022/07/13 08:52:44;;;;;;;30.20;28.40;;;31.00;41.40;;;;;;5003228;28;20457;-71
2022/07/13 08:55:11;;;;;;;29.50;27.70;;;30.90;42.40;;;;;;5008266;28;21037;-71
2022/07/13 08:57:40;;;;;;;29.77;28.17;;;30.80;42.50;;;;;;4997126;28;20554;-71
2022/07/13 09:00:10;;;;;;;30.00;28.40;;;30.80;42.50;;;;;;5007380;28;20539;-71
2022/07/13 09:02:38;;;;;;;31.80;30.10;;;30.80;42.40;;;;;;4996304;28;20457;-71
2022/07/13 09:05:06;;;;;;;29.57;27.97;;;30.90;42.50;;;;;;5008449;28;20565;-71
2022/07/13 09:07:35;;;;;;;33.13;31.33;;;30.90;41.90;;;;;;5008963;28;21064;-72
2022/07/13 09:10:04;;;;;;;31.80;30.10;;;30.80;41.20;;;;;;5002392;28;20717;-72
2022/07/13 09:12:32;;;;;;;29.63;28.03;;;30.70;40.60;;;;;;5010458;28;20464;-71
2022/07/13 09:15:00;;;;;;;29.27;27.67;;;30.60;40.50;;;;;;5011167;28;20459;-70
2022/07/13 09:17:35;;;;;;;31.23;29.50;;;30.40;41.30;;;;;;5010531;28;20456;-70
2022/07/13 09:20:17;;;;;;;32.93;31.00;;;30.20;41.00;;;;;;5010442;28;20471;-73
2022/07/13 09:22:51;;;;;;;30.13;28.43;;;30.00;41.70;;;;;;5008368;28;20534;-71
2022/07/13 09:25:32;;;;;;;30.83;29.20;;;29.90;42.20;;;;;;5011332;28;20536;-72
2022/07/13 09:28:02;;;;;;;32.83;30.90;;;29.80;41.70;;;;;;4999084;28;20563;-71
2022/07/13 09:30:30;;;;;;;29.80;27.90;;;29.70;42.10;;;;;;5011138;28;20453;-71
2022/07/13 09:32:58;;;;;;;31.20;29.50;;;29.60;42.40;;;;;;5010884;28;20537;-72
2022/07/13 09:35:47;;;;;;;31.37;29.17;;;29.60;42.80;;;;;;5008724;28;20545;-71
2022/07/13 09:38:33;;;;;;;33.07;31.07;;;29.50;42.80;;;;;;5000754;28;20505;-71
2022/07/13 09:41:22;;;;;;;30.40;28.67;;;29.50;42.30;;;;;;5014066;28;20544;-71
2022/07/13 09:46:53;;;;;;;31.60;29.80;;;29.40;42.40;;;;;;5006382;28;20534;-74
2022/07/13 09:49:29;;;;;;;32.53;30.83;;;29.40;42.00;;;;;;5009141;28;20575;-71
2022/07/13 09:51:58;;;;;;;33.50;31.60;;;29.30;40.60;;;;;;5012303;28;20464;-71
2022/07/13 09:54:29;;;;;;;30.73;29.03;;;29.30;41.00;;;;;;5008330;28;20547;-72
2022/07/13 09:56:59;;;;;;;29.33;27.73;;;29.30;40.50;;;;;;5011660;28;20459;-73
2022/07/13 09:59:27;;;;;;;30.83;29.10;;;29.40;39.10;;;;;;5008247;28;20510;-73
2022/07/13 10:01:54;;;;;;;30.43;28.43;;;29.30;42.60;;;;;;5011482;28;20496;-73
2022/07/13 10:04:23;;;;;;;33.10;31.10;;;29.10;44.00;;;;;;5011572;28;20453;-73
2022/07/13 10:06:50;;;;;;;29.20;27.50;;;29.00;42.00;;;;;;5003572;28;20482;-73
2022/07/13 10:09:20;;;;;;;28.90;27.30;;;28.90;41.30;;;;;;5008771;28;20485;-73
2022/07/13 10:11:49;;;;;;;32.70;31.00;;;28.80;43.10;;;;;;5010901;28;20465;-73
2022/07/13 10:14:18;;;;;;;31.70;29.80;;;28.70;39.30;;;;;;5009505;28;20471;-73
2022/07/13 10:16:45;;;;;;;30.17;28.47;;;28.60;41.80;;;;;;5012776;28;20464;-73
2022/07/13 10:19:13;;;;;;;29.80;28.10;;;28.70;39.20;;;;;;5009002;28;20813;-73
2022/07/13 10:22:02;;;;;;;33.87;31.90;;;28.70;40.00;;;;;;5011293;28;20492;-73
2022/07/13 10:24:30;;;;;;;31.40;29.60;;;28.90;40.10;;;;;;5009345;28;20459;-73
2022/07/13 10:27:22;;;;;;;29.57;27.67;;;28.90;39.80;;;;;;5012422;28;20547;-73
2022/07/13 10:29:50;;;;;;;30.23;28.53;;;28.90;39.90;;;;;;5000514;28;20481;-72
2022/07/13 10:32:18;;;;;;;33.13;31.23;;;29.00;40.30;;;;;;5011185;28;20473;-73
2022/07/13 10:34:53;;;;;;;34.03;32.13;;;29.20;37.50;;;;;;5009377;28;20539;-73
2022/07/13 10:37:20;;;;;;;31.60;29.70;;;29.20;41.10;;;;;;4998219;28;20741;-73
2022/07/13 10:40:36;;;;;;;30.10;28.40;;;29.10;39.80;;;;;;5011219;28;20898;-72
2022/07/13 10:43:18;;;;;;;30.53;28.83;;;29.10;40.40;;;;;;5011140;28;20544;-73
2022/07/13 10:45:48;;;;;;;38.17;35.80;;;29.20;40.40;;;;;;5012188;28;20477;-73
2022/07/13 10:48:43;;;;;;;29.90;28.27;;;29.20;38.50;;;;;;5010559;28;20473;-73
2022/07/13 10:51:21;;;;;;;30.67;28.77;;;29.50;37.80;;;;;;5002118;28;20900;-73
2022/07/13 10:54:10;;;;;;;29.60;28.00;;;29.50;37.20;;;;;;5010016;28;20458;-73
2022/07/13 10:56:39;;;;;;;33.57;31.67;;;29.80;34.10;;;;;;5006690;28;20499;-71
2022/07/13 10:59:08;;;;;;;32.80;31.00;;;30.00;33.80;;;;;;5008799;28;20901;-70
2022/07/13 11:01:47;;;;;;;33.73;31.60;;;30.40;33.20;;;;;;5010414;28;20465;-71
2022/07/13 11:04:16;;;;;;;34.00;32.00;;;30.70;30.60;;;;;;5010014;28;20543;-72
2022/07/13 11:07:03;;;;;;;34.57;32.37;;;30.90;30.60;;;;;;5007230;28;20596;-72
2022/07/13 11:09:30;;;;;;;36.10;34.30;;;31.20;31.90;;;;;;5007999;28;20576;-72
2022/07/13 11:11:57;;;;;;;32.60;30.53;;;31.40;32.50;;;;;;5010979;28;20573;-71
2022/07/13 11:15:01;;;;;;;33.57;31.67;;;31.60;32.70;;;;;;5008544;28;20885;-71
2022/07/13 11:17:29;;;;;;;31.80;29.90;;;31.80;31.60;;;;;;5008157;28;20535;-71
2022/07/13 11:19:58;;;;;;;31.77;29.97;;;31.90;29.00;;;;;;5009650;28;20533;-74
2022/07/13 11:22:27;;;;;;;31.23;29.37;;;32.00;31.80;;;;;;5009953;28;20540;-74
2022/07/13 11:25:19;;;;;;;31.97;30.07;;;32.00;32.20;;;;;;5010866;28;20923;-74
2022/07/13 11:28:03;;;;;;;31.10;29.20;;;32.00;32.20;;;;;;5009387;28;20452;-74
2022/07/13 11:30:33;;;;;;;32.47;30.70;;;32.00;34.20;;;;;;5009594;28;20564;-73
2022/07/13 11:33:01;;;;;;;33.13;30.93;;;31.70;34.00;;;;;;5007755;28;20461;-73
2022/07/13 11:35:28;;;;;;;30.00;28.40;;;31.40;35.10;;;;;;5009400;28;20754;-74
2022/07/13 11:37:55;;;;;;;31.93;30.03;;;31.10;31.40;;;;;;5009613;28;20580;-73
2022/07/13 11:40:29;;;;;;;32.13;30.43;;;30.80;34.80;;;;;;5010013;28;20453;-73
2022/07/13 11:42:59;;;;;;;29.97;28.33;;;30.60;31.60;;;;;;5010037;28;20460;-73
2022/07/13 11:45:29;;;;;;;33.33;31.17;;;30.60;35.40;;;;;;5010540;28;20554;-73
2022/07/13 11:48:02;;;;;;;30.83;29.10;;;30.60;35.60;;;;;;4996886;28;20527;-73
2022/07/13 11:50:47;;;;;;;29.13;27.37;;;30.70;30.00;;;;;;5010173;28;20472;-72
2022/07/13 11:53:26;;;;;;;30.30;28.60;;;30.70;29.60;;;;;;5005380;28;20465;-71
2022/07/13 11:55:54;;;;;;;33.53;31.53;;;31.00;28.80;;;;;;5010279;28;20461;-72
2022/07/13 11:58:23;;;;;;;31.17;29.37;;;31.10;29.80;;;;;;4999661;28;20476;-72
2022/07/13 12:00:51;;;;;;;31.53;29.73;;;31.30;29.80;;;;;;5006939;28;20914;-73
2022/07/13 12:03:30;;;;;;;40.80;37.90;;;31.60;29.90;;;;;;5007058;28;20461;-75
2022/07/13 12:06:05;;;;;;;41.93;38.70;;;31.80;35.10;;;;;;5003870;28;20559;-73
2022/07/13 12:08:34;;;;;;;35.70;33.43;;;31.80;33.10;;;;;;5007407;28;20486;-74
2022/07/13 12:11:05;;;;;;;32.57;30.67;;;32.00;32.80;;;;;;5009778;28;20457;-73
2022/07/13 12:13:34;;;;;;;30.50;28.80;;;32.10;31.70;;;;;;5004232;28;20552;-73
2022/07/13 12:16:03;;;;;;;34.57;32.80;;;32.40;29.10;;;;;;5008667;28;20461;-73
2022/07/13 12:18:32;;;;;;;31.00;29.20;;;32.70;28.50;;;;;;5007586;28;20480;-74
2022/07/13 12:20:59;;;;;;;32.90;30.90;;;32.90;30.30;;;;;;5009516;28;20456;-75
2022/07/13 12:23:27;;;;;;;31.50;29.70;;;33.00;29.90;;;;;;5006437;28;20661;-74
2022/07/13 12:26:07;;;;;;;30.47;28.47;;;33.20;28.90;;;;;;5008599;28;20481;-74
2022/07/13 12:28:39;;;;;;;33.30;31.20;;;33.30;28.80;;;;;;5008804;28;20572;-74
2022/07/13 12:31:07;;;;;;;34.00;32.10;;;33.30;30.20;;;;;;5009460;28;20958;-75
2022/07/13 12:33:44;;;;;;;32.30;30.33;;;33.30;29.50;;;;;;5006877;28;20459;-75
2022/07/13 12:36:13;;;;;;;29.90;28.20;;;33.30;30.70;;;;;;5006865;28;20464;-75
2022/07/13 12:38:54;;;;;;;30.10;28.50;;;33.50;30.20;;;;;;5008552;28;21061;-75
2022/07/13 12:41:27;;;;;;;31.60;29.90;;;33.50;31.50;;;;;;5003231;28;20452;-74
2022/07/13 12:43:57;;;;;;;32.47;30.37;;;33.50;32.30;;;;;;5007793;28;20579;-75
2022/07/13 12:46:24;;;;;;;32.67;30.77;;;33.50;33.10;;;;;;5002851;28;20948;-75